Terminal Aerodrome Forecast
Issued by NWS

Home | Current Version | Previous Version | Text Only | Print | Product List | Glossary On
Versions: 1 2 3 4 5 6 7 8 9 10 11 12 13 14 15 16 17 18 19 20 21 22 23 24 25 26 27 28
000
FTUS43 KDDC 240539
TAFGCK
TAF
KGCK 240539Z 2406/2506 15018G25KT P6SM FEW009
     FM240800 14012KT P6SM BKN015
     FM241000 14010KT P6SM OVC008
     FM241200 15012KT 5SM BR OVC006
     FM241500 18014G23KT P6SM BKN015
     FM241800 20016G24KT P6SM SCT040
     FM250100 17017G24KT P6SM FEW200=

USA.gov is the U.S. government's official web portal to all federal, state and local government web resources and services.